Arden, Nevada
Current Conditions -  °F | °C
As of 5:56 PM on Wednesday 22 Oct 2014 (Local Time) from KLAS Reporting Station
Scattered Clouds Scattered Clouds  
Wind Chill: 81°   Ceiling: Unl
Heat Index: 81°   Visibility: 10mi
Dew Point: 27°   Wind: 0mph
Humidity: 14%   Direction: NA
Pressure: 29.96"   Gusts: NA
Location:  36.079°N, 115.211°W
Report Text: KLAS 230056Z 00000KT 10SM SCT250 27/M03 A2996 RMK AO2 SLP126 T02721028
Loading
Personal Weather Stations






























Interactive Weather Map
Tropical Storm Tracking
New forecast layout! Learn more

10-Day Weather Forecast

Advertisements
Track Severe Weather on mobile